Gregory, SD (57533)

6:46 AM CDT on September 18, 2014 (GMT -0500)
Winner | Change Station
CLOSE
Current Station
Airport
Location: Winner,
Elevation: 2031 ft
Nearby Weather Stations

Elev 2031 ft 43.39 °N, 99.84 °W | Updated 53 minutes ago

Clear
Clear
59 °F
Feels Like 59 °F
N
10
Wind Variable Wind from SE

Today
High -- | Low -- °F
--% Chance of Precip.
Yesterday
High -- | Low -- °F
Precip. -- in
7:20 AM 7:42 PM
Waning Crescent, 28% visible
Pressure 29.89 in
Visibility 10.0 miles
Clouds Clear
Dew Point 55 °F
Humidity 87%
Rainfall 0.00 in
Snow Depth 0 in
UV 0 out of 12
Pollen 5.30 out of 12
Air Quality Not available.
Flu Activity Not available.
METAR KICR 181053Z AUTO 13009KT 10SM CLR 15/13 A2992 RMK AO2 SLP120 T01500128

More Conditions Fewer Conditions

Pressure 29.89 in
Visibility 10.0 miles
Clouds Clear
Dew Point 55 °F
Humidity 87%
Rainfall 0.00 in
Snow Depth 0 in
UV 0 out of 12
Pollen 5.30 out of 12
Air Quality Not available.
Flu Activity Not available.
METAR KICR 181053Z AUTO 13009KT 10SM CLR 15/13 A2992 RMK AO2 SLP120 T01500128

More Conditions Fewer Conditions

10-Day Weather Forecast

Almanac

Astronomy

Sep. 18, 2014 Rise Set
Actual Time 7:20 AM CDT 7:42 PM CDT
Civil Twilight 6:52 AM CDT 8:10 PM CDT
Nautical Twilight 6:18 AM CDT 8:44 PM CDT
Astronomical Twilight 5:43 AM CDT 9:18 PM CDT
Moon 2:07 AM CDT 4:40 PM CDT
Length of Visible Light 13h 18m
Length of Day
12h 21m
Tomorrow will be 2m 55s shorter.
Waning Crescent, 28% of the Moon is Illuminated
Today
Waning Crescent
Sep 24
New
Oct 1
First Quarter
Oct 8
Full
Oct 15
Last Quarter

Today's Extremes

State Highs State Lows

Community

WunderPhotos

Upload Photos

1,754,324 photos uploaded!

Nearby

Snow Depth

Station Depth Elevation
Blind Park 0 in 6890 ft

Earthquake Activity

City Distance Mag. Time & Date
No recent earthquake activity has been reported nearby.
Minimum magnitude displayed is 2.5.

Coastal Water Temperatures

Place Temperature
No Stations Reporting

Nearby Weather Stations